Time;durP1;ratioP1;P1;durP2;ratioP2;P2;SDS_P1;SDS_P2;PMS_P1;PMS_P2;Temp;Humidity;BMP_temperature;BMP_pressure;BME280_temperature;BME280_humidity;BME280_pressure;Samples;Min_cycle;Max_cycle;Signal;HPM_P1;HPM_P2
2021/06/08 00:01:12;;;;;;;30.95;27.48;;;17.00;99.90;;;;;;4923837;29;20318;-82
2021/06/08 00:03:39;;;;;;;30.77;27.52;;;17.10;99.90;;;;;;4944010;29;20286;-81
2021/06/08 00:06:05;;;;;;;34.85;29.08;;;17.00;99.90;;;;;;4939737;29;20310;-81
2021/06/08 00:08:32;;;;;;;30.55;27.30;;;16.90;99.90;;;;;;4939412;29;20328;-82
2021/06/08 00:10:59;;;;;;;29.70;26.30;;;16.80;99.90;;;;;;4939217;29;20299;-82
2021/06/08 00:13:26;;;;;;;27.45;24.42;;;16.80;99.90;;;;;;4940296;29;20216;-81
2021/06/08 00:15:54;;;;;;;29.52;26.55;;;16.80;99.90;;;;;;4940533;29;20308;-82
2021/06/08 00:18:21;;;;;;;31.02;27.67;;;16.90;99.90;;;;;;4939178;29;20250;-81
2021/06/08 00:20:48;;;;;;;32.42;29.08;;;17.00;99.90;;;;;;4922205;29;20223;-81
2021/06/08 00:23:14;;;;;;;30.58;27.40;;;17.10;99.90;;;;;;4922620;29;20631;-81
2021/06/08 00:25:42;;;;;;;28.33;25.67;;;17.00;99.90;;;;;;4942736;29;20230;-82
2021/06/08 00:28:09;;;;;;;31.40;28.38;;;17.00;99.90;;;;;;4942592;29;20677;-82
2021/06/08 00:30:36;;;;;;;28.15;25.17;;;16.90;99.90;;;;;;4942890;29;20723;-80
2021/06/08 00:33:04;;;;;;;26.38;23.63;;;16.80;99.90;;;;;;4933221;28;20199;-81
2021/06/08 00:35:32;;;;;;;27.63;24.80;;;16.80;99.90;;;;;;4943317;29;20261;-81
2021/06/08 00:37:59;;;;;;;29.35;26.58;;;16.80;99.90;;;;;;4960619;29;20689;-81
2021/06/08 00:40:27;;;;;;;29.27;26.40;;;16.70;99.90;;;;;;4961156;29;20226;-81
2021/06/08 00:42:55;;;;;;;30.10;27.08;;;16.80;99.90;;;;;;4960847;29;20246;-82
2021/06/08 00:45:22;;;;;;;27.10;24.30;;;16.90;99.90;;;;;;4961082;28;20740;-82
2021/06/08 00:47:49;;;;;;;29.60;26.70;;;16.90;99.90;;;;;;4946203;29;20287;-81
2021/06/08 00:50:18;;;;;;;28.30;25.35;;;16.80;99.90;;;;;;4924627;29;20200;-82
2021/06/08 00:52:45;;;;;;;31.42;28.23;;;16.70;99.90;;;;;;4942347;29;20290;-82
2021/06/08 00:55:13;;;;;;;30.08;26.92;;;16.70;99.90;;;;;;4925088;29;20219;-81
2021/06/08 00:57:40;;;;;;;27.58;24.77;;;17.00;99.90;;;;;;4942139;29;20197;-81
2021/06/08 01:00:08;;;;;;;30.95;27.92;;;17.10;99.90;;;;;;4943990;29;20682;-82
2021/06/08 01:02:35;;;;;;;29.58;26.88;;;17.00;99.90;;;;;;4954614;29;20223;-81
2021/06/08 01:05:03;;;;;;;28.98;26.05;;;16.90;99.90;;;;;;4925584;29;20200;-81
2021/06/08 01:07:32;;;;;;;30.10;27.05;;;16.70;99.90;;;;;;4926467;29;20291;-82
2021/06/08 01:09:59;;;;;;;31.92;28.77;;;16.70;99.90;;;;;;4924634;29;20207;-81
2021/06/08 01:12:26;;;;;;;29.60;26.77;;;16.70;99.90;;;;;;4925481;29;20275;-81
2021/06/08 01:14:53;;;;;;;29.27;26.10;;;16.60;99.90;;;;;;4954386;29;20234;-82
2021/06/08 01:17:20;;;;;;;27.95;25.25;;;16.70;99.90;;;;;;4961158;28;20475;-81
2021/06/08 01:19:47;;;;;;;28.27;25.45;;;16.60;99.90;;;;;;4961369;29;20198;-82
2021/06/08 01:22:15;;;;;;;28.38;25.40;;;16.60;99.90;;;;;;4955450;29;20219;-82
2021/06/08 01:24:44;;;;;;;34.13;27.38;;;16.80;99.90;;;;;;4942787;29;20654;-82
2021/06/08 01:27:11;;;;;;;29.35;26.52;;;16.90;99.90;;;;;;4943887;29;20229;-81
2021/06/08 01:29:39;;;;;;;31.45;28.20;;;17.00;99.90;;;;;;4959663;29;20290;-82
2021/06/08 01:32:08;;;;;;;34.17;30.90;;;16.80;99.90;;;;;;4958731;29;20629;-81
2021/06/08 01:34:36;;;;;;;31.70;28.48;;;17.00;99.90;;;;;;4959291;28;20219;-82
2021/06/08 01:37:04;;;;;;;29.90;26.73;;;16.90;99.90;;;;;;4943461;29;20226;-82
2021/06/08 01:39:33;;;;;;;29.60;26.48;;;16.70;99.90;;;;;;4942627;28;20198;-81
2021/06/08 01:42:00;;;;;;;27.52;24.38;;;16.60;99.90;;;;;;4960880;29;20246;-82
2021/06/08 01:44:27;;;;;;;30.33;27.17;;;16.70;99.90;;;;;;4960805;28;20195;-82
2021/06/08 01:46:54;;;;;;;28.70;25.77;;;16.70;99.90;;;;;;4960312;28;20306;-81
2021/06/08 01:49:20;;;;;;;31.13;28.25;;;16.70;99.90;;;;;;4941874;29;20675;-81
2021/06/08 01:51:55;;;;;;;33.97;30.58;;;16.90;99.90;;;;;;4926569;29;20689;-81
2021/06/08 01:54:32;;;;;;;27.50;24.70;;;16.90;99.90;;;;;;4942465;29;20225;-81
2021/06/08 01:57:08;;;;;;;32.20;28.75;;;16.90;99.90;;;;;;4956970;28;20234;-80
2021/06/08 01:59:45;;;;;;;28.83;26.02;;;16.90;99.90;;;;;;4954923;29;20199;-81
2021/06/08 02:02:23;;;;;;;31.77;28.58;;;16.70;99.90;;;;;;4923433;29;20203;-81
2021/06/08 02:04:53;;;;;;;26.63;24.13;;;16.70;99.90;;;;;;4924005;29;20207;-82
2021/06/08 02:07:31;;;;;;;28.33;25.35;;;16.60;99.90;;;;;;4940108;29;20318;-80
2021/06/08 02:10:30;;;;;;;28.02;25.13;;;16.60;99.90;;;;;;4906990;29;20211;-82
2021/06/08 02:13:09;;;;;;;27.30;24.50;;;16.60;99.90;;;;;;4934089;29;20210;-82
2021/06/08 02:15:41;;;;;;;28.58;25.75;;;16.60;99.90;;;;;;4938921;29;20215;-82
2021/06/08 02:18:11;;;;;;;31.35;28.13;;;16.50;99.90;;;;;;4940563;29;20219;-82
2021/06/08 02:20:39;;;;;;;26.58;24.05;;;16.70;99.90;;;;;;4939389;29;20210;-81
2021/06/08 02:23:11;;;;;;;25.48;22.77;;;16.60;99.90;;;;;;4924045;29;20203;-81
2021/06/08 02:25:39;;;;;;;31.80;28.58;;;16.60;99.90;;;;;;4928044;29;20211;-80
2021/06/08 02:28:10;;;;;;;30.05;27.02;;;16.70;99.90;;;;;;4959309;29;20271;-79
2021/06/08 02:30:38;;;;;;;26.67;24.17;;;16.70;99.90;;;;;;4963325;28;20209;-81
2021/06/08 02:33:05;;;;;;;32.35;28.85;;;16.70;99.90;;;;;;4941440;29;20206;-82
2021/06/08 02:35:34;;;;;;;32.28;29.08;;;16.60;99.90;;;;;;4959920;28;20238;-82
2021/06/08 02:38:02;;;;;;;28.05;25.38;;;16.70;99.90;;;;;;4950718;29;20777;-82
2021/06/08 02:40:30;;;;;;;26.17;22.90;;;16.70;99.90;;;;;;4941045;29;20203;-81
2021/06/08 02:42:56;;;;;;;25.42;22.80;;;16.60;99.90;;;;;;4940920;29;20286;-82
2021/06/08 02:45:25;;;;;;;27.38;24.58;;;16.50;99.90;;;;;;4942382;29;20302;-84
2021/06/08 02:47:53;;;;;;;25.65;23.30;;;16.30;99.90;;;;;;4944021;29;20199;-84
2021/06/08 02:50:23;;;;;;;26.58;23.80;;;16.20;99.90;;;;;;4944019;29;20284;-84
2021/06/08 02:52:53;;;;;;;28.58;25.30;;;16.20;99.90;;;;;;4960785;29;20223;-84
2021/06/08 02:55:22;;;;;;;25.98;23.42;;;16.10;99.90;;;;;;4944604;28;20238;-84
2021/06/08 02:57:51;;;;;;;28.77;26.15;;;15.90;99.90;;;;;;4944190;29;20207;-83
2021/06/08 03:00:20;;;;;;;29.67;26.92;;;16.00;99.90;;;;;;4956752;29;20203;-82
2021/06/08 03:02:53;;;;;;;27.50;24.65;;;15.90;99.90;;;;;;4947291;29;20265;-82
2021/06/08 03:05:25;;;;;;;27.23;24.35;;;16.00;99.90;;;;;;4954038;28;20191;-82
2021/06/08 03:07:55;;;;;;;27.80;24.95;;;15.90;99.90;;;;;;4942960;29;20238;-82
2021/06/08 03:10:26;;;;;;;27.63;24.90;;;15.80;99.90;;;;;;4943077;29;20195;-82
2021/06/08 03:12:55;;;;;;;26.17;23.48;;;15.80;99.90;;;;;;4944805;29;20238;-82
2021/06/08 03:15:27;;;;;;;26.23;23.55;;;15.80;99.90;;;;;;4944130;28;20254;-82
2021/06/08 03:17:56;;;;;;;26.38;23.33;;;15.80;99.90;;;;;;4944986;29;20206;-82
2021/06/08 03:20:30;;;;;;;25.38;22.90;;;15.60;99.90;;;;;;4941822;29;20225;-82
2021/06/08 03:23:01;;;;;;;26.30;23.65;;;15.70;99.90;;;;;;4915701;29;20202;-82
2021/06/08 03:25:30;;;;;;;26.45;22.75;;;15.70;99.90;;;;;;4941837;29;20267;-82
2021/06/08 03:27:58;;;;;;;26.55;23.50;;;15.70;99.90;;;;;;4958022;29;20572;-81
2021/06/08 03:30:26;;;;;;;25.88;23.02;;;15.70;99.90;;;;;;4924166;29;20199;-82
2021/06/08 03:32:53;;;;;;;23.30;21.00;;;15.80;99.90;;;;;;4923599;29;20191;-81
2021/06/08 03:35:25;;;;;;;26.00;23.50;;;15.80;99.90;;;;;;4922482;29;20223;-82
2021/06/08 03:37:53;;;;;;;25.92;23.48;;;15.70;99.90;;;;;;4954961;29;20206;-82
2021/06/08 03:40:21;;;;;;;26.88;24.08;;;15.60;99.90;;;;;;4957180;28;20627;-82
2021/06/08 03:42:48;;;;;;;27.40;24.67;;;15.70;99.90;;;;;;4952984;29;20566;-82
2021/06/08 03:45:16;;;;;;;25.35;22.77;;;15.80;99.90;;;;;;4954673;28;20191;-81
2021/06/08 03:47:44;;;;;;;22.00;19.88;;;15.70;99.90;;;;;;4958016;28;20510;-82
2021/06/08 03:50:14;;;;;;;23.20;20.95;;;15.70;99.90;;;;;;4958634;28;20748;-82
2021/06/08 03:52:49;;;;;;;24.05;21.75;;;15.70;99.90;;;;;;4941357;29;20198;-82
2021/06/08 03:55:18;;;;;;;25.80;23.08;;;15.80;99.90;;;;;;4964467;28;20264;-82
2021/06/08 03:57:48;;;;;;;29.88;27.05;;;15.80;99.90;;;;;;4945657;29;20207;-82
2021/06/08 04:00:16;;;;;;;24.65;22.23;;;16.20;99.90;;;;;;4944916;29;20202;-82
2021/06/08 04:02:46;;;;;;;26.20;23.55;;;16.10;99.90;;;;;;4961823;28;20228;-82
2021/06/08 04:05:14;;;;;;;28.27;22.63;;;16.00;99.90;;;;;;4962526;28;20191;-81
2021/06/08 04:07:43;;;;;;;23.15;20.73;;;15.90;99.90;;;;;;4944534;29;20643;-82
2021/06/08 04:10:16;;;;;;;21.40;19.33;;;15.70;99.90;;;;;;4959837;28;20199;-82
2021/06/08 04:12:42;;;;;;;21.52;19.48;;;15.60;99.90;;;;;;4945855;29;20230;-82
2021/06/08 04:15:10;;;;;;;22.98;20.70;;;15.60;99.90;;;;;;4964452;28;20226;-82
2021/06/08 04:17:37;;;;;;;20.70;18.90;;;15.60;99.90;;;;;;4963959;28;20277;-82
2021/06/08 04:20:05;;;;;;;23.52;21.35;;;15.80;99.90;;;;;;4964999;28;20282;-81
2021/06/08 04:22:33;;;;;;;21.63;19.40;;;15.90;99.90;;;;;;4964629;28;20203;-82
2021/06/08 04:25:03;;;;;;;22.00;20.02;;;16.10;99.90;;;;;;4947946;29;20202;-83
2021/06/08 04:27:31;;;;;;;22.17;20.08;;;16.20;99.90;;;;;;4946922;28;20221;-83
2021/06/08 04:29:58;;;;;;;22.92;20.58;;;16.10;99.90;;;;;;4963823;29;20203;-82
2021/06/08 04:32:25;;;;;;;21.65;19.58;;;16.10;99.90;;;;;;4964141;29;20195;-82
2021/06/08 04:34:54;;;;;;;24.33;22.08;;;16.10;99.90;;;;;;4964072;29;20218;-83
2021/06/08 04:37:21;;;;;;;23.52;21.02;;;16.20;99.90;;;;;;4962786;28;20214;-83
2021/06/08 04:39:49;;;;;;;25.33;20.83;;;16.20;99.90;;;;;;4965008;28;20198;-84
2021/06/08 04:42:18;;;;;;;23.02;20.80;;;16.20;99.90;;;;;;4958413;28;20290;-84
2021/06/08 04:44:47;;;;;;;23.60;21.10;;;16.30;99.90;;;;;;4928579;29;20247;-84
2021/06/08 04:47:17;;;;;;;23.90;21.40;;;16.30;99.90;;;;;;4952917;29;20223;-83
2021/06/08 04:49:43;;;;;;;22.10;19.90;;;16.40;99.90;;;;;;4949259;29;20210;-84
2021/06/08 04:52:10;;;;;;;24.13;21.75;;;16.40;99.90;;;;;;4945258;29;20195;-84
2021/06/08 04:54:38;;;;;;;27.80;25.02;;;16.70;99.90;;;;;;4948001;29;20246;-83
2021/06/08 04:57:06;;;;;;;28.17;25.02;;;16.70;99.90;;;;;;4947383;29;20660;-83
2021/06/08 04:59:39;;;;;;;25.35;22.65;;;16.80;99.90;;;;;;4949974;29;20203;-83
2021/06/08 05:02:09;;;;;;;25.35;22.77;;;16.80;99.90;;;;;;4945216;29;20206;-83
2021/06/08 05:04:40;;;;;;;24.35;21.85;;;16.70;99.90;;;;;;4946412;29;20195;-84
2021/06/08 05:07:09;;;;;;;28.40;25.42;;;16.60;99.90;;;;;;4946177;29;20228;-82
2021/06/08 05:09:41;;;;;;;28.00;25.10;;;16.80;99.90;;;;;;4946249;29;20191;-82
2021/06/08 05:12:11;;;;;;;32.50;27.05;;;16.80;99.90;;;;;;4946653;29;20199;-83
2021/06/08 05:14:46;;;;;;;30.35;25.10;;;16.80;99.90;;;;;;4925567;29;20247;-82
2021/06/08 05:17:16;;;;;;;31.17;27.90;;;16.80;99.90;;;;;;4926361;29;20234;-80
2021/06/08 05:19:43;;;;;;;26.70;23.85;;;16.70;99.90;;;;;;4946922;29;20259;-83
2021/06/08 05:22:11;;;;;;;31.25;26.20;;;16.90;99.90;;;;;;4947438;29;20207;-82
2021/06/08 05:24:39;;;;;;;33.03;29.58;;;16.80;99.90;;;;;;4945927;29;20195;-82
2021/06/08 05:27:09;;;;;;;30.17;27.02;;;16.90;99.90;;;;;;4945989;29;20282;-83
2021/06/08 05:29:38;;;;;;;28.85;25.83;;;17.00;99.90;;;;;;4929419;29;20207;-83
2021/06/08 05:32:07;;;;;;;33.63;30.38;;;16.90;99.90;;;;;;4945761;29;20211;-82
2021/06/08 05:34:34;;;;;;;32.13;28.95;;;17.00;99.90;;;;;;4929594;29;20693;-83
2021/06/08 05:37:08;;;;;;;34.25;30.58;;;17.00;99.90;;;;;;4948007;29;20235;-83
2021/06/08 05:39:36;;;;;;;33.35;29.85;;;17.10;99.90;;;;;;4944509;28;20559;-83
2021/06/08 05:42:04;;;;;;;37.47;31.65;;;17.00;99.90;;;;;;4942595;29;20258;-82
2021/06/08 05:44:30;;;;;;;36.30;31.67;;;16.90;99.90;;;;;;4943029;29;20215;-82
2021/06/08 05:46:58;;;;;;;35.38;31.48;;;17.00;99.90;;;;;;4942668;29;20306;-82
2021/06/08 05:49:26;;;;;;;38.70;31.65;;;16.90;99.90;;;;;;4942146;29;20286;-82
2021/06/08 05:51:52;;;;;;;33.47;28.45;;;17.00;99.90;;;;;;4934200;29;20179;-81
2021/06/08 05:54:21;;;;;;;35.92;32.00;;;17.10;99.90;;;;;;4956113;28;20223;-82
2021/06/08 05:56:48;;;;;;;30.85;27.60;;;17.00;99.90;;;;;;4958875;29;20230;-81
2021/06/08 05:59:16;;;;;;;35.90;29.90;;;17.00;99.90;;;;;;4942173;29;20211;-81
2021/06/08 06:01:43;;;;;;;35.45;30.35;;;17.00;99.90;;;;;;4959009;29;20208;-81
2021/06/08 06:04:12;;;;;;;37.03;32.20;;;16.80;99.90;;;;;;4947646;29;20440;-84
2021/06/08 06:06:41;;;;;;;35.00;30.13;;;17.00;99.90;;;;;;4927142;29;20840;-82
2021/06/08 06:09:08;;;;;;;34.45;30.85;;;17.00;99.90;;;;;;4956033;29;20199;-83
2021/06/08 06:11:36;;;;;;;33.17;29.60;;;17.00;99.90;;;;;;4966495;28;20209;-83
2021/06/08 06:14:04;;;;;;;37.40;33.45;;;16.90;99.90;;;;;;4954327;28;20223;-83
2021/06/08 06:16:34;;;;;;;35.72;31.95;;;17.20;99.90;;;;;;4951232;29;20311;-84
2021/06/08 06:19:03;;;;;;;38.13;33.40;;;17.10;99.90;;;;;;4962604;28;20195;-82
2021/06/08 06:21:30;;;;;;;34.15;30.48;;;17.10;99.90;;;;;;4960903;28;20203;-82
2021/06/08 06:24:01;;;;;;;38.75;30.55;;;17.00;99.90;;;;;;4962394;28;20262;-83
2021/06/08 06:26:28;;;;;;;41.40;34.65;;;17.20;99.90;;;;;;4960965;28;20218;-82
2021/06/08 06:28:55;;;;;;;47.78;34.30;;;17.20;99.90;;;;;;4947821;29;20256;-83
2021/06/08 06:31:23;;;;;;;42.55;36.03;;;17.00;99.90;;;;;;4942576;29;20315;-82
2021/06/08 06:33:53;;;;;;;36.53;32.60;;;17.20;99.90;;;;;;4954315;29;20191;-83
2021/06/08 06:36:20;;;;;;;37.72;31.58;;;17.10;99.90;;;;;;4956242;29;20681;-84
2021/06/08 06:38:51;;;;;;;31.17;28.05;;;17.20;99.90;;;;;;4948303;28;20207;-81
2021/06/08 06:41:20;;;;;;;41.33;34.35;;;17.20;99.90;;;;;;4957139;29;20215;-81
2021/06/08 06:43:50;;;;;;;35.03;30.60;;;17.30;99.90;;;;;;4969869;29;20198;-80
2021/06/08 06:46:17;;;;;;;37.03;32.70;;;17.30;99.90;;;;;;4972101;28;20230;-80
2021/06/08 06:48:45;;;;;;;34.75;31.23;;;17.30;99.90;;;;;;4947253;29;20228;-80
2021/06/08 06:51:12;;;;;;;33.00;27.88;;;17.30;99.90;;;;;;4949035;29;20198;-82
2021/06/08 06:53:40;;;;;;;32.50;28.88;;;17.30;99.90;;;;;;4959885;29;20218;-83
2021/06/08 06:56:07;;;;;;;31.50;28.08;;;17.20;99.90;;;;;;4956555;28;20226;-82
2021/06/08 06:58:36;;;;;;;39.17;33.10;;;17.50;99.90;;;;;;4948231;29;20223;-82
2021/06/08 07:01:03;;;;;;;30.13;26.98;;;17.40;99.90;;;;;;4952272;29;20503;-81
2021/06/08 07:03:32;;;;;;;38.63;33.95;;;17.40;99.90;;;;;;4945313;29;20218;-82
2021/06/08 07:06:01;;;;;;;32.75;28.90;;;17.60;99.90;;;;;;4955372;23;20230;-36
2021/06/08 07:08:30;;;;;;;32.47;28.52;;;17.60;99.90;;;;;;4944047;28;20322;-38
2021/06/08 07:10:57;;;;;;;34.60;30.88;;;17.60;99.90;;;;;;4927201;29;20659;-37
2021/06/08 07:13:24;;;;;;;36.20;31.38;;;17.60;99.90;;;;;;4931144;29;20282;-37
2021/06/08 07:15:53;;;;;;;35.05;28.63;;;17.70;99.90;;;;;;4928127;29;20219;-37
2021/06/08 07:18:20;;;;;;;36.05;32.30;;;17.80;99.90;;;;;;4926188;29;20214;-38
2021/06/08 07:20:47;;;;;;;36.65;32.72;;;18.00;99.90;;;;;;4920515;29;20208;-40
2021/06/08 07:23:18;;;;;;;34.90;30.92;;;18.00;99.90;;;;;;4919614;29;20200;-40
2021/06/08 07:25:45;;;;;;;37.63;31.52;;;17.80;99.90;;;;;;4928057;29;20223;-37
2021/06/08 07:28:12;;;;;;;31.65;28.23;;;17.80;99.90;;;;;;4920343;29;20303;-37
2021/06/08 07:30:41;;;;;;;35.80;31.65;;;17.70;99.90;;;;;;4932507;29;20214;-36
2021/06/08 07:33:12;;;;;;;40.58;33.95;;;17.90;99.90;;;;;;4927574;29;20606;-38
2021/06/08 07:35:49;;;;;;;37.83;32.30;;;18.20;99.90;;;;;;4900444;29;20224;-37
2021/06/08 07:38:19;;;;;;;33.03;29.65;;;18.10;99.90;;;;;;4923809;29;20327;-38
2021/06/08 07:40:55;;;;;;;35.45;30.27;;;18.10;99.90;;;;;;4930461;29;20274;-38
2021/06/08 07:43:23;;;;;;;36.38;30.48;;;18.10;99.90;;;;;;4933137;29;20674;-38
2021/06/08 07:45:51;;;;;;;34.35;29.20;;;18.00;99.90;;;;;;4928324;29;20199;-38
2021/06/08 07:48:27;;;;;;;34.65;30.95;;;18.10;99.90;;;;;;4931616;29;20659;-38
2021/06/08 07:50:56;;;;;;;36.00;31.45;;;18.10;99.90;;;;;;4936082;29;20783;-38
2021/06/08 07:53:26;;;;;;;36.42;32.67;;;18.10;99.90;;;;;;4929902;29;20200;-38
2021/06/08 07:55:52;;;;;;;30.83;27.67;;;18.20;99.90;;;;;;4932065;29;20258;-40
2021/06/08 07:58:22;;;;;;;34.08;30.60;;;18.20;99.90;;;;;;4941482;29;20824;-39
2021/06/08 08:00:50;;;;;;;34.67;31.08;;;18.10;99.90;;;;;;4941288;29;20195;-38
2021/06/08 08:03:26;;;;;;;34.97;31.17;;;18.30;99.90;;;;;;4943624;29;20310;-37
2021/06/08 08:05:57;;;;;;;35.10;31.42;;;18.40;99.90;;;;;;4940349;29;20286;-40
2021/06/08 08:08:24;;;;;;;33.83;30.15;;;18.30;99.90;;;;;;4945507;28;20225;-38
2021/06/08 08:10:52;;;;;;;35.67;31.42;;;18.30;99.90;;;;;;4943576;29;20191;-40
2021/06/08 08:13:22;;;;;;;36.75;32.80;;;18.30;99.90;;;;;;4943138;29;20207;-38
2021/06/08 08:15:50;;;;;;;37.83;32.13;;;18.50;99.90;;;;;;4942705;29;20536;-38
2021/06/08 08:18:17;;;;;;;35.95;30.60;;;18.20;99.90;;;;;;4939680;29;20223;-38
2021/06/08 08:20:48;;;;;;;34.60;30.88;;;18.30;99.90;;;;;;4946900;29;20218;-39
2021/06/08 08:23:16;;;;;;;37.25;33.22;;;18.50;99.90;;;;;;4941284;29;20210;-38
2021/06/08 08:25:44;;;;;;;38.92;34.30;;;18.60;99.90;;;;;;4943721;29;20195;-38
2021/06/08 08:28:11;;;;;;;35.53;31.90;;;18.60;99.90;;;;;;4944531;29;20250;-38
2021/06/08 08:30:38;;;;;;;39.05;35.05;;;18.60;99.90;;;;;;4943068;29;20203;-39
2021/06/08 08:33:06;;;;;;;37.92;34.05;;;18.90;99.90;;;;;;4943002;29;20278;-38
2021/06/08 08:35:34;;;;;;;38.45;34.42;;;19.00;99.90;;;;;;4946323;29;20245;-37
2021/06/08 08:38:00;;;;;;;37.67;33.70;;;19.20;99.90;;;;;;4945425;29;20858;-39
2021/06/08 08:40:29;;;;;;;35.00;31.38;;;19.20;99.90;;;;;;4940752;29;20195;-38
2021/06/08 08:42:59;;;;;;;32.80;29.25;;;19.10;99.90;;;;;;4941452;29;20223;-38
2021/06/08 08:45:26;;;;;;;36.88;33.08;;;19.20;99.90;;;;;;4938223;28;20215;-37
2021/06/08 08:47:54;;;;;;;36.88;32.92;;;19.50;99.90;;;;;;4944917;28;20272;-40
2021/06/08 08:50:21;;;;;;;36.53;32.63;;;19.50;99.90;;;;;;4942780;29;20207;-37
2021/06/08 08:52:55;;;;;;;37.40;33.30;;;19.60;99.90;;;;;;4944474;29;20566;-38
2021/06/08 08:55:24;;;;;;;42.78;35.50;;;19.60;99.90;;;;;;4939526;29;20227;-39
2021/06/08 08:57:53;;;;;;;39.22;35.20;;;19.60;99.90;;;;;;4937682;29;20203;-40
2021/06/08 09:00:22;;;;;;;32.65;29.10;;;19.90;99.90;;;;;;4941970;29;20212;-38
2021/06/08 09:02:49;;;;;;;43.20;35.75;;;19.90;99.90;;;;;;4940466;29;20195;-40
2021/06/08 09:05:17;;;;;;;36.38;31.35;;;20.20;99.90;;;;;;4938101;29;20207;-39
2021/06/08 09:07:43;;;;;;;39.58;35.33;;;19.90;99.90;;;;;;4941978;29;20230;-38
2021/06/08 09:10:13;;;;;;;37.40;33.38;;;20.10;99.90;;;;;;4929232;28;20868;-37
2021/06/08 09:12:41;;;;;;;39.58;35.35;;;19.80;99.90;;;;;;4934985;29;20282;-38
2021/06/08 09:15:10;;;;;;;38.15;34.10;;;20.00;99.90;;;;;;4930379;29;20242;-38
2021/06/08 09:17:39;;;;;;;38.78;34.67;;;19.90;99.90;;;;;;4934991;29;20203;-40
2021/06/08 09:20:08;;;;;;;38.45;34.28;;;20.00;99.90;;;;;;4940863;29;20590;-37
2021/06/08 09:22:49;;;;;;;43.13;36.53;;;20.20;99.90;;;;;;4945069;29;20233;-37
2021/06/08 09:25:49;;;;;;;44.47;37.47;;;20.10;99.90;;;;;;4939698;29;20217;-38
2021/06/08 09:28:26;;;;;;;39.55;35.42;;;20.30;99.90;;;;;;4942664;28;20219;-37
2021/06/08 09:30:59;;;;;;;37.67;30.75;;;20.10;99.90;;;;;;4938465;29;20677;-38
2021/06/08 09:33:28;;;;;;;38.17;33.40;;;20.10;99.90;;;;;;4947554;29;20233;-37
2021/06/08 09:35:58;;;;;;;37.38;30.83;;;20.20;99.90;;;;;;4932414;29;20309;-38
2021/06/08 09:38:35;;;;;;;39.13;34.97;;;20.40;99.90;;;;;;4933385;29;20215;-38
2021/06/08 09:41:19;;;;;;;37.15;32.03;;;20.50;99.90;;;;;;4937942;29;20207;-38
2021/06/08 09:43:58;;;;;;;40.42;35.97;;;20.80;99.90;;;;;;4940007;29;20190;-38
2021/06/08 09:46:31;;;;;;;37.72;33.63;;;21.20;99.90;;;;;;4940990;29;20206;-39
2021/06/08 09:48:59;;;;;;;38.20;33.03;;;20.70;99.90;;;;;;4940662;29;20226;-38
2021/06/08 09:51:27;;;;;;;39.97;33.35;;;20.30;99.90;;;;;;4933291;29;20223;-38
2021/06/08 09:53:54;;;;;;;38.20;34.10;;;20.40;99.90;;;;;;4937692;29;20210;-36
2021/06/08 09:56:22;;;;;;;38.80;33.00;;;20.20;99.90;;;;;;4927136;29;20204;-39
2021/06/08 09:58:51;;;;;;;42.65;35.05;;;20.50;99.90;;;;;;4921623;29;20599;-38
2021/06/08 10:01:20;;;;;;;39.45;35.13;;;20.70;99.90;;;;;;4931292;29;20207;-37
2021/06/08 10:03:50;;;;;;;41.88;37.25;;;21.00;99.90;;;;;;4934000;29;20266;-38
2021/06/08 10:06:18;;;;;;;41.75;35.22;;;20.90;99.90;;;;;;4932195;29;20206;-38
2021/06/08 10:08:58;;;;;;;43.95;39.30;;;21.10;99.90;;;;;;4918637;29;20494;-38
2021/06/08 10:11:29;;;;;;;39.45;35.17;;;21.20;99.90;;;;;;4920341;29;20661;-38
2021/06/08 10:14:08;;;;;;;44.20;34.33;;;21.40;99.90;;;;;;4934011;29;20625;-37
2021/06/08 10:16:35;;;;;;;41.70;36.40;;;21.60;99.90;;;;;;4934034;29;20207;-38
2021/06/08 10:19:03;;;;;;;39.97;34.40;;;21.80;99.90;;;;;;4933592;29;20227;-39
2021/06/08 10:21:36;;;;;;;36.22;32.33;;;22.10;99.90;;;;;;4933637;29;20251;-38
2021/06/08 10:24:05;;;;;;;39.45;34.58;;;22.30;99.90;;;;;;4934035;29;20259;-38
2021/06/08 10:26:35;;;;;;;38.63;32.75;;;22.30;99.90;;;;;;4933817;29;20626;-38
2021/06/08 10:29:07;;;;;;;36.05;32.28;;;22.30;99.90;;;;;;4933750;29;20216;-38
2021/06/08 10:31:35;;;;;;;34.35;30.65;;;22.50;99.90;;;;;;4933754;29;20282;-38
2021/06/08 10:34:06;;;;;;;38.03;33.65;;;22.50;99.90;;;;;;4933533;29;21313;-37
2021/06/08 10:36:34;;;;;;;36.75;33.00;;;22.40;99.90;;;;;;4930727;29;20242;-37
2021/06/08 10:39:01;;;;;;;40.42;34.83;;;22.20;99.90;;;;;;4930281;29;20222;-37
2021/06/08 10:41:28;;;;;;;37.55;33.50;;;21.90;99.90;;;;;;4932849;29;20199;-39
2021/06/08 10:43:56;;;;;;;38.20;34.13;;;22.20;99.90;;;;;;4913478;29;20330;-37
2021/06/08 10:46:26;;;;;;;36.38;30.17;;;22.50;99.90;;;;;;4924129;29;20195;-38
2021/06/08 10:48:53;;;;;;;38.75;34.45;;;22.60;99.90;;;;;;4931948;29;20215;-38
2021/06/08 10:51:23;;;;;;;32.35;29.05;;;23.10;99.90;;;;;;4931319;29;20282;-41
2021/06/08 10:53:51;;;;;;;35.45;31.80;;;23.10;99.90;;;;;;4934327;29;20206;-39
2021/06/08 10:56:28;;;;;;;34.13;30.65;;;23.60;99.90;;;;;;4924798;29;22928;-40
2021/06/08 10:58:57;;;;;;;35.03;29.75;;;23.80;99.90;;;;;;4925165;29;20246;-38
2021/06/08 11:01:44;;;;;;;31.95;28.52;;;23.80;99.90;;;;;;4926797;29;20222;-39
2021/06/08 11:04:13;;;;;;;35.83;31.58;;;23.50;99.90;;;;;;4925069;29;20207;-39
2021/06/08 11:06:51;;;;;;;34.42;30.83;;;23.50;99.90;;;;;;4925054;29;20693;-37
2021/06/08 11:09:34;;;;;;;31.77;28.42;;;23.30;99.90;;;;;;4936507;29;20321;-37
2021/06/08 11:12:04;;;;;;;32.05;27.50;;;23.00;99.90;;;;;;4930029;29;20254;-38
2021/06/08 11:15:02;;;;;;;37.83;31.90;;;22.80;99.90;;;;;;4931717;29;20242;-39
2021/06/08 11:17:36;;;;;;;33.38;30.08;;;22.80;99.90;;;;;;4924770;29;20240;-38
2021/06/08 11:20:17;;;;;;;30.38;27.23;;;22.40;99.90;;;;;;4907295;29;20223;-39
2021/06/08 11:23:02;;;;;;;38.95;33.10;;;22.10;99.90;;;;;;4926669;29;20693;-38
2021/06/08 11:25:42;;;;;;;33.83;30.58;;;22.20;99.90;;;;;;4924543;29;20227;-38
2021/06/08 11:28:11;;;;;;;37.50;33.28;;;22.40;99.90;;;;;;4929180;29;20529;-40
2021/06/08 11:30:42;;;;;;;36.67;32.70;;;22.50;99.90;;;;;;4929557;29;20206;-38
2021/06/08 11:33:27;;;;;;;34.35;30.67;;;22.60;99.90;;;;;;4926722;29;20199;-39
2021/06/08 11:35:58;;;;;;;37.40;33.08;;;22.80;99.90;;;;;;4924103;29;20230;-38
2021/06/08 11:38:34;;;;;;;43.85;38.67;;;22.60;99.90;;;;;;4932086;29;20755;-39
2021/06/08 11:41:04;;;;;;;37.90;33.95;;;22.50;99.90;;;;;;4936709;29;20467;-37
2021/06/08 11:43:46;;;;;;;38.17;34.08;;;22.50;99.90;;;;;;4926861;29;20195;-38
2021/06/08 11:46:16;;;;;;;36.42;32.67;;;23.10;99.90;;;;;;4929284;29;20214;-38
2021/06/08 11:48:44;;;;;;;35.95;32.30;;;23.60;99.90;;;;;;4928004;29;20230;-38
2021/06/08 11:51:35;;;;;;;33.05;29.63;;;23.90;99.90;;;;;;4930379;29;20583;-40
2021/06/08 11:54:03;;;;;;;31.70;28.35;;;24.20;99.90;;;;;;4926779;29;20203;-38
2021/06/08 11:56:52;;;;;;;34.95;31.23;;;24.30;99.90;;;;;;4914486;29;20282;-38
2021/06/08 11:59:21;;;;;;;30.77;27.77;;;24.60;99.90;;;;;;4913840;29;20319;-38
2021/06/08 12:01:52;;;;;;;32.40;29.05;;;24.80;99.90;;;;;;4921165;29;20211;-39
2021/06/08 12:04:20;;;;;;;35.95;32.20;;;24.90;99.90;;;;;;4932805;29;20211;-37
2021/06/08 12:07:07;;;;;;;33.50;29.98;;;24.90;99.90;;;;;;4932790;29;20254;-40
2021/06/08 12:09:46;;;;;;;33.30;29.80;;;24.80;99.90;;;;;;4933667;29;20597;-38
2021/06/08 12:12:15;;;;;;;32.55;29.13;;;25.10;99.90;;;;;;4927485;29;20703;-39
2021/06/08 12:14:50;;;;;;;35.03;30.65;;;25.30;99.90;;;;;;4923428;29;20732;-38
2021/06/08 12:17:19;;;;;;;31.92;28.60;;;25.30;99.90;;;;;;4927993;29;20709;-38
2021/06/08 12:19:46;;;;;;;34.25;30.67;;;25.00;99.90;;;;;;4923236;29;20235;-38
2021/06/08 12:22:24;;;;;;;33.50;29.92;;;25.00;99.90;;;;;;4933222;29;20267;-38
2021/06/08 12:24:55;;;;;;;30.70;27.50;;;25.10;99.90;;;;;;4927053;29;20573;-38
2021/06/08 12:27:33;;;;;;;32.88;29.60;;;25.30;99.90;;;;;;4933017;29;20214;-38
2021/06/08 12:30:00;;;;;;;27.75;24.75;;;26.00;99.90;;;;;;4919342;29;20211;-38
2021/06/08 12:32:28;;;;;;;31.92;28.80;;;26.30;99.90;;;;;;4932514;29;20208;-39
2021/06/08 12:34:55;;;;;;;28.98;26.17;;;26.70;99.90;;;;;;4934349;29;20266;-40
2021/06/08 12:37:24;;;;;;;30.17;24.70;;;26.90;99.90;;;;;;4936055;29;20215;-37
2021/06/08 12:39:55;;;;;;;28.00;25.10;;;26.90;99.90;;;;;;4930186;29;20306;-38
2021/06/08 12:42:22;;;;;;;27.38;24.55;;;26.90;99.90;;;;;;4936597;29;20547;-39